sensor_id;sensor_type;location;lat;lon;timestamp;temperature;humidity
13585;DHT22;6863;48.402;9.994;2023-08-08T00:01:42;10.80;99.90
13585;DHT22;6863;48.402;9.994;2023-08-08T00:04:11;10.80;99.90
13585;DHT22;6863;48.402;9.994;2023-08-08T00:06:37;11.00;99.90
13585;DHT22;6863;48.402;9.994;2023-08-08T00:09:03;11.10;99.90
13585;DHT22;6863;48.402;9.994;2023-08-08T00:11:29;11.10;99.90
13585;DHT22;6863;48.402;9.994;2023-08-08T00:13:56;11.10;99.90
13585;DHT22;6863;48.402;9.994;2023-08-08T00:16:22;11.00;99.90
13585;DHT22;6863;48.402;9.994;2023-08-08T00:18:48;10.90;99.90
13585;DHT22;6863;48.402;9.994;2023-08-08T00:21:16;10.80;99.90
13585;DHT22;6863;48.402;9.994;2023-08-08T00:23:41;10.70;99.90
13585;DHT22;6863;48.402;9.994;2023-08-08T00:26:07;10.70;99.90
13585;DHT22;6863;48.402;9.994;2023-08-08T00:28:32;10.80;99.90
13585;DHT22;6863;48.402;9.994;2023-08-08T00:30:58;10.80;99.90
13585;DHT22;6863;48.402;9.994;2023-08-08T00:33:23;10.70;99.90
13585;DHT22;6863;48.402;9.994;2023-08-08T00:35:49;10.70;99.90
13585;DHT22;6863;48.402;9.994;2023-08-08T00:38:14;10.80;99.90
13585;DHT22;6863;48.402;9.994;2023-08-08T00:40:41;10.90;99.90
13585;DHT22;6863;48.402;9.994;2023-08-08T00:43:07;10.90;99.90
13585;DHT22;6863;48.402;9.994;2023-08-08T00:45:32;10.90;99.90
13585;DHT22;6863;48.402;9.994;2023-08-08T00:47:58;10.90;99.90
13585;DHT22;6863;48.402;9.994;2023-08-08T00:50:24;10.90;99.90
13585;DHT22;6863;48.402;9.994;2023-08-08T00:52:49;10.90;99.90
13585;DHT22;6863;48.402;9.994;2023-08-08T00:55:15;10.90;99.90
13585;DHT22;6863;48.402;9.994;2023-08-08T00:57:41;11.00;99.90
13585;DHT22;6863;48.402;9.994;2023-08-08T01:00:07;11.00;99.90
13585;DHT22;6863;48.402;9.994;2023-08-08T01:02:35;11.00;99.90
13585;DHT22;6863;48.402;9.994;2023-08-08T01:05:02;10.90;99.90
13585;DHT22;6863;48.402;9.994;2023-08-08T01:07:39;11.00;99.90
13585;DHT22;6863;48.402;9.994;2023-08-08T01:10:15;11.00;99.90
13585;DHT22;6863;48.402;9.994;2023-08-08T01:12:45;11.10;99.90
13585;DHT22;6863;48.402;9.994;2023-08-08T01:15:12;11.10;99.90
13585;DHT22;6863;48.402;9.994;2023-08-08T01:17:39;11.20;99.90
13585;DHT22;6863;48.402;9.994;2023-08-08T01:20:07;11.20;99.90
13585;DHT22;6863;48.402;9.994;2023-08-08T01:22:50;11.30;99.90
13585;DHT22;6863;48.402;9.994;2023-08-08T01:25:21;11.30;99.90
13585;DHT22;6863;48.402;9.994;2023-08-08T01:27:47;11.20;99.90
13585;DHT22;6863;48.402;9.994;2023-08-08T01:30:12;11.20;99.90
13585;DHT22;6863;48.402;9.994;2023-08-08T01:32:38;11.30;99.90
13585;DHT22;6863;48.402;9.994;2023-08-08T01:35:04;11.20;99.90
13585;DHT22;6863;48.402;9.994;2023-08-08T01:37:34;11.20;99.90
13585;DHT22;6863;48.402;9.994;2023-08-08T01:40:01;11.30;99.90
13585;DHT22;6863;48.402;9.994;2023-08-08T01:42:28;11.30;99.90
13585;DHT22;6863;48.402;9.994;2023-08-08T01:44:55;11.30;99.90
13585;DHT22;6863;48.402;9.994;2023-08-08T01:47:22;11.30;99.90
13585;DHT22;6863;48.402;9.994;2023-08-08T01:49:47;11.30;99.90
13585;DHT22;6863;48.402;9.994;2023-08-08T01:52:13;11.30;99.90
13585;DHT22;6863;48.402;9.994;2023-08-08T01:54:38;11.30;99.90
13585;DHT22;6863;48.402;9.994;2023-08-08T01:57:04;11.30;99.90
13585;DHT22;6863;48.402;9.994;2023-08-08T01:59:30;11.30;99.90
13585;DHT22;6863;48.402;9.994;2023-08-08T02:01:55;11.30;99.90
13585;DHT22;6863;48.402;9.994;2023-08-08T02:04:21;11.30;99.90
13585;DHT22;6863;48.402;9.994;2023-08-08T02:06:46;11.40;99.90
13585;DHT22;6863;48.402;9.994;2023-08-08T02:09:12;11.30;99.90
13585;DHT22;6863;48.402;9.994;2023-08-08T02:11:40;11.40;99.90
13585;DHT22;6863;48.402;9.994;2023-08-08T02:14:05;11.40;99.90
13585;DHT22;6863;48.402;9.994;2023-08-08T02:16:31;11.40;99.90
13585;DHT22;6863;48.402;9.994;2023-08-08T02:18:57;11.40;99.90
13585;DHT22;6863;48.402;9.994;2023-08-08T02:21:22;11.40;99.90
13585;DHT22;6863;48.402;9.994;2023-08-08T02:23:48;11.40;99.90
13585;DHT22;6863;48.402;9.994;2023-08-08T02:26:13;11.30;99.90
13585;DHT22;6863;48.402;9.994;2023-08-08T02:28:39;11.40;99.90
13585;DHT22;6863;48.402;9.994;2023-08-08T02:31:04;11.30;99.90
13585;DHT22;6863;48.402;9.994;2023-08-08T02:33:30;11.30;99.90
13585;DHT22;6863;48.402;9.994;2023-08-08T02:35:55;11.30;99.90
13585;DHT22;6863;48.402;9.994;2023-08-08T02:38:21;11.30;99.90
13585;DHT22;6863;48.402;9.994;2023-08-08T02:40:47;11.30;99.90
13585;DHT22;6863;48.402;9.994;2023-08-08T02:43:12;11.30;99.90
13585;DHT22;6863;48.402;9.994;2023-08-08T02:45:38;11.30;99.90
13585;DHT22;6863;48.402;9.994;2023-08-08T02:48:05;11.30;99.90
13585;DHT22;6863;48.402;9.994;2023-08-08T02:50:30;11.40;99.90
13585;DHT22;6863;48.402;9.994;2023-08-08T02:52:56;11.40;99.90
13585;DHT22;6863;48.402;9.994;2023-08-08T02:55:21;11.40;99.90
13585;DHT22;6863;48.402;9.994;2023-08-08T02:57:47;11.50;99.90
13585;DHT22;6863;48.402;9.994;2023-08-08T03:00:13;11.50;99.90
13585;DHT22;6863;48.402;9.994;2023-08-08T03:02:38;11.50;99.90
13585;DHT22;6863;48.402;9.994;2023-08-08T03:05:04;11.50;99.90
13585;DHT22;6863;48.402;9.994;2023-08-08T03:07:31;11.50;99.90
13585;DHT22;6863;48.402;9.994;2023-08-08T03:09:56;11.50;99.90
13585;DHT22;6863;48.402;9.994;2023-08-08T03:12:22;11.50;99.90
13585;DHT22;6863;48.402;9.994;2023-08-08T03:14:47;11.50;99.90
13585;DHT22;6863;48.402;9.994;2023-08-08T03:17:13;11.50;99.90
13585;DHT22;6863;48.402;9.994;2023-08-08T03:19:38;11.50;99.90
13585;DHT22;6863;48.402;9.994;2023-08-08T03:22:04;11.50;99.90
13585;DHT22;6863;48.402;9.994;2023-08-08T03:24:30;11.50;99.90
13585;DHT22;6863;48.402;9.994;2023-08-08T03:26:55;11.50;99.90
13585;DHT22;6863;48.402;9.994;2023-08-08T03:29:21;11.40;99.90
13585;DHT22;6863;48.402;9.994;2023-08-08T03:31:46;11.40;99.90
13585;DHT22;6863;48.402;9.994;2023-08-08T03:34:12;11.40;99.90
13585;DHT22;6863;48.402;9.994;2023-08-08T03:36:37;11.30;99.90
13585;DHT22;6863;48.402;9.994;2023-08-08T03:39:03;11.30;99.90
13585;DHT22;6863;48.402;9.994;2023-08-08T03:41:29;11.20;99.90
13585;DHT22;6863;48.402;9.994;2023-08-08T03:43:55;11.10;99.90
13585;DHT22;6863;48.402;9.994;2023-08-08T03:46:21;11.10;99.90
13585;DHT22;6863;48.402;9.994;2023-08-08T03:48:47;11.10;99.90
13585;DHT22;6863;48.402;9.994;2023-08-08T03:51:12;11.00;99.90
13585;DHT22;6863;48.402;9.994;2023-08-08T03:53:38;10.90;99.90
13585;DHT22;6863;48.402;9.994;2023-08-08T03:56:04;10.90;99.90
13585;DHT22;6863;48.402;9.994;2023-08-08T03:58:29;10.90;99.90
13585;DHT22;6863;48.402;9.994;2023-08-08T04:00:55;10.90;99.90
13585;DHT22;6863;48.402;9.994;2023-08-08T04:03:22;10.90;99.90
13585;DHT22;6863;48.402;9.994;2023-08-08T04:05:47;10.90;99.90
13585;DHT22;6863;48.402;9.994;2023-08-08T04:08:16;10.90;99.90
13585;DHT22;6863;48.402;9.994;2023-08-08T04:10:43;10.90;99.90
13585;DHT22;6863;48.402;9.994;2023-08-08T04:13:09;10.90;99.90
13585;DHT22;6863;48.402;9.994;2023-08-08T04:15:34;10.80;99.90
13585;DHT22;6863;48.402;9.994;2023-08-08T04:18:00;10.90;99.90
13585;DHT22;6863;48.402;9.994;2023-08-08T04:20:25;10.90;99.90
13585;DHT22;6863;48.402;9.994;2023-08-08T04:22:51;11.00;99.90
13585;DHT22;6863;48.402;9.994;2023-08-08T04:25:17;11.00;99.90
13585;DHT22;6863;48.402;9.994;2023-08-08T04:27:42;11.00;99.90
13585;DHT22;6863;48.402;9.994;2023-08-08T04:30:08;11.10;99.90
13585;DHT22;6863;48.402;9.994;2023-08-08T04:32:34;11.10;99.90
13585;DHT22;6863;48.402;9.994;2023-08-08T04:35:00;11.20;99.90
13585;DHT22;6863;48.402;9.994;2023-08-08T04:37:25;11.20;99.90
13585;DHT22;6863;48.402;9.994;2023-08-08T04:39:51;11.20;99.90
13585;DHT22;6863;48.402;9.994;2023-08-08T04:42:16;11.30;99.90
13585;DHT22;6863;48.402;9.994;2023-08-08T04:44:42;11.30;99.90
13585;DHT22;6863;48.402;9.994;2023-08-08T04:47:07;11.30;99.90
13585;DHT22;6863;48.402;9.994;2023-08-08T04:49:33;11.30;99.90
13585;DHT22;6863;48.402;9.994;2023-08-08T04:51:59;11.30;99.90
13585;DHT22;6863;48.402;9.994;2023-08-08T04:54:24;11.40;99.90
13585;DHT22;6863;48.402;9.994;2023-08-08T04:56:50;11.50;99.90
13585;DHT22;6863;48.402;9.994;2023-08-08T04:59:15;11.50;99.90
13585;DHT22;6863;48.402;9.994;2023-08-08T05:01:41;11.70;99.90
13585;DHT22;6863;48.402;9.994;2023-08-08T05:04:06;11.70;99.90
13585;DHT22;6863;48.402;9.994;2023-08-08T05:06:32;11.90;99.90
13585;DHT22;6863;48.402;9.994;2023-08-08T05:08:58;12.00;99.90
13585;DHT22;6863;48.402;9.994;2023-08-08T05:11:23;11.90;99.90
13585;DHT22;6863;48.402;9.994;2023-08-08T05:13:49;11.90;99.90
13585;DHT22;6863;48.402;9.994;2023-08-08T05:16:14;11.90;99.90
13585;DHT22;6863;48.402;9.994;2023-08-08T05:18:40;11.90;99.90
13585;DHT22;6863;48.402;9.994;2023-08-08T05:21:06;11.90;99.90
13585;DHT22;6863;48.402;9.994;2023-08-08T05:23:32;12.00;99.90
13585;DHT22;6863;48.402;9.994;2023-08-08T05:25:58;12.00;99.90
13585;DHT22;6863;48.402;9.994;2023-08-08T05:28:23;12.00;99.90
13585;DHT22;6863;48.402;9.994;2023-08-08T05:30:49;12.00;99.90
13585;DHT22;6863;48.402;9.994;2023-08-08T05:33:15;12.00;99.90
13585;DHT22;6863;48.402;9.994;2023-08-08T05:35:40;12.00;99.90
13585;DHT22;6863;48.402;9.994;2023-08-08T05:38:06;12.00;99.90
13585;DHT22;6863;48.402;9.994;2023-08-08T05:40:34;12.00;99.90
13585;DHT22;6863;48.402;9.994;2023-08-08T05:43:00;12.00;99.90
13585;DHT22;6863;48.402;9.994;2023-08-08T05:45:26;12.00;99.90
13585;DHT22;6863;48.402;9.994;2023-08-08T05:47:51;12.10;99.90
13585;DHT22;6863;48.402;9.994;2023-08-08T05:50:17;12.30;99.90
13585;DHT22;6863;48.402;9.994;2023-08-08T05:52:43;12.40;99.90
13585;DHT22;6863;48.402;9.994;2023-08-08T05:55:08;12.50;99.90
13585;DHT22;6863;48.402;9.994;2023-08-08T05:57:34;12.60;99.90
13585;DHT22;6863;48.402;9.994;2023-08-08T06:00:00;12.60;99.90
13585;DHT22;6863;48.402;9.994;2023-08-08T06:02:26;12.60;99.90
13585;DHT22;6863;48.402;9.994;2023-08-08T06:04:51;12.50;99.90
13585;DHT22;6863;48.402;9.994;2023-08-08T06:07:17;12.60;99.90
13585;DHT22;6863;48.402;9.994;2023-08-08T06:09:42;12.70;99.90
13585;DHT22;6863;48.402;9.994;2023-08-08T06:12:08;12.70;99.90
13585;DHT22;6863;48.402;9.994;2023-08-08T06:14:34;12.70;99.90
13585;DHT22;6863;48.402;9.994;2023-08-08T06:17:00;12.60;99.90
13585;DHT22;6863;48.402;9.994;2023-08-08T06:19:25;12.70;99.90
13585;DHT22;6863;48.402;9.994;2023-08-08T06:21:51;12.70;99.90
13585;DHT22;6863;48.402;9.994;2023-08-08T06:24:16;12.60;99.90
13585;DHT22;6863;48.402;9.994;2023-08-08T06:26:42;12.60;99.90
13585;DHT22;6863;48.402;9.994;2023-08-08T06:29:07;12.70;99.90
13585;DHT22;6863;48.402;9.994;2023-08-08T06:31:33;12.70;99.90
13585;DHT22;6863;48.402;9.994;2023-08-08T06:33:58;12.90;99.90
13585;DHT22;6863;48.402;9.994;2023-08-08T06:36:24;13.00;99.90
13585;DHT22;6863;48.402;9.994;2023-08-08T06:38:50;13.20;99.90
13585;DHT22;6863;48.402;9.994;2023-08-08T06:41:15;13.30;99.90
13585;DHT22;6863;48.402;9.994;2023-08-08T06:43:41;13.50;99.90
13585;DHT22;6863;48.402;9.994;2023-08-08T06:46:06;13.70;99.90
13585;DHT22;6863;48.402;9.994;2023-08-08T06:48:32;14.00;99.90
13585;DHT22;6863;48.402;9.994;2023-08-08T06:50:57;14.20;99.90
13585;DHT22;6863;48.402;9.994;2023-08-08T06:53:23;14.40;99.90
13585;DHT22;6863;48.402;9.994;2023-08-08T06:55:49;14.50;99.90
13585;DHT22;6863;48.402;9.994;2023-08-08T06:58:14;14.50;99.90
13585;DHT22;6863;48.402;9.994;2023-08-08T07:00:40;14.70;99.90
13585;DHT22;6863;48.402;9.994;2023-08-08T07:03:05;14.70;99.90
13585;DHT22;6863;48.402;9.994;2023-08-08T07:05:31;14.90;99.90
13585;DHT22;6863;48.402;9.994;2023-08-08T07:07:57;15.00;99.90
13585;DHT22;6863;48.402;9.994;2023-08-08T07:10:22;15.30;99.90
13585;DHT22;6863;48.402;9.994;2023-08-08T07:12:48;15.40;99.90
13585;DHT22;6863;48.402;9.994;2023-08-08T07:15:14;15.50;99.70
13585;DHT22;6863;48.402;9.994;2023-08-08T07:17:40;15.60;99.80
13585;DHT22;6863;48.402;9.994;2023-08-08T07:20:06;15.90;99.20
13585;DHT22;6863;48.402;9.994;2023-08-08T07:22:32;16.10;98.60
13585;DHT22;6863;48.402;9.994;2023-08-08T07:24:58;16.20;98.30
13585;DHT22;6863;48.402;9.994;2023-08-08T07:27:26;16.20;98.50
13585;DHT22;6863;48.402;9.994;2023-08-08T07:29:51;16.30;98.30
13585;DHT22;6863;48.402;9.994;2023-08-08T07:32:17;16.40;97.90
13585;DHT22;6863;48.402;9.994;2023-08-08T07:34:42;16.60;97.70
13585;DHT22;6863;48.402;9.994;2023-08-08T07:37:08;16.70;97.60
13585;DHT22;6863;48.402;9.994;2023-08-08T07:39:34;16.80;97.20
13585;DHT22;6863;48.402;9.994;2023-08-08T07:41:59;16.80;97.00
13585;DHT22;6863;48.402;9.994;2023-08-08T07:44:25;17.10;96.90
13585;DHT22;6863;48.402;9.994;2023-08-08T07:46:50;17.20;96.80
13585;DHT22;6863;48.402;9.994;2023-08-08T07:49:16;17.40;96.00
13585;DHT22;6863;48.402;9.994;2023-08-08T07:51:41;17.50;95.80
13585;DHT22;6863;48.402;9.994;2023-08-08T07:54:07;17.60;95.60
13585;DHT22;6863;48.402;9.994;2023-08-08T07:56:35;18.10;94.80
13585;DHT22;6863;48.402;9.994;2023-08-08T07:59:00;18.30;94.40
13585;DHT22;6863;48.402;9.994;2023-08-08T08:01:28;18.60;93.70
13585;DHT22;6863;48.402;9.994;2023-08-08T08:03:54;18.90;93.20
13585;DHT22;6863;48.402;9.994;2023-08-08T08:06:19;18.70;92.50
13585;DHT22;6863;48.402;9.994;2023-08-08T08:08:45;18.80;92.80
13585;DHT22;6863;48.402;9.994;2023-08-08T08:11:11;19.00;92.20
13585;DHT22;6863;48.402;9.994;2023-08-08T08:13:38;19.10;91.30
13585;DHT22;6863;48.402;9.994;2023-08-08T08:16:04;19.10;91.90
13585;DHT22;6863;48.402;9.994;2023-08-08T08:18:29;19.30;91.20
13585;DHT22;6863;48.402;9.994;2023-08-08T08:20:55;19.30;90.60
13585;DHT22;6863;48.402;9.994;2023-08-08T08:23:21;19.20;90.70
13585;DHT22;6863;48.402;9.994;2023-08-08T08:25:47;19.30;90.70
13585;DHT22;6863;48.402;9.994;2023-08-08T08:28:14;19.50;90.30
13585;DHT22;6863;48.402;9.994;2023-08-08T08:30:40;19.20;90.70
13585;DHT22;6863;48.402;9.994;2023-08-08T08:33:06;19.60;90.50
13585;DHT22;6863;48.402;9.994;2023-08-08T08:35:34;20.20;89.40
13585;DHT22;6863;48.402;9.994;2023-08-08T08:38:00;20.70;87.60
13585;DHT22;6863;48.402;9.994;2023-08-08T08:40:26;20.70;86.20
13585;DHT22;6863;48.402;9.994;2023-08-08T08:42:53;20.60;85.10
13585;DHT22;6863;48.402;9.994;2023-08-08T08:45:20;20.20;85.20
13585;DHT22;6863;48.402;9.994;2023-08-08T08:47:47;20.30;85.50
13585;DHT22;6863;48.402;9.994;2023-08-08T08:50:15;20.40;85.20
13585;DHT22;6863;48.402;9.994;2023-08-08T08:52:42;20.60;85.20
13585;DHT22;6863;48.402;9.994;2023-08-08T08:55:08;20.90;84.50
13585;DHT22;6863;48.402;9.994;2023-08-08T08:57:44;21.20;83.70
13585;DHT22;6863;48.402;9.994;2023-08-08T09:00:10;21.70;80.50
13585;DHT22;6863;48.402;9.994;2023-08-08T09:02:36;21.40;80.30
13585;DHT22;6863;48.402;9.994;2023-08-08T09:05:03;21.60;80.30
13585;DHT22;6863;48.402;9.994;2023-08-08T09:07:32;21.80;78.70
13585;DHT22;6863;48.402;9.994;2023-08-08T09:09:58;21.90;78.60
13585;DHT22;6863;48.402;9.994;2023-08-08T09:12:24;22.60;77.40
13585;DHT22;6863;48.402;9.994;2023-08-08T09:14:55;22.90;74.40
13585;DHT22;6863;48.402;9.994;2023-08-08T09:17:21;23.00;73.80
13585;DHT22;6863;48.402;9.994;2023-08-08T09:19:47;22.80;74.00
13585;DHT22;6863;48.402;9.994;2023-08-08T09:22:13;22.50;73.60
13585;DHT22;6863;48.402;9.994;2023-08-08T09:24:40;22.40;74.40
13585;DHT22;6863;48.402;9.994;2023-08-08T09:27:09;22.60;73.70
13585;DHT22;6863;48.402;9.994;2023-08-08T09:29:36;22.30;73.40
13585;DHT22;6863;48.402;9.994;2023-08-08T09:32:05;22.40;72.70
13585;DHT22;6863;48.402;9.994;2023-08-08T09:34:31;22.60;73.10
13585;DHT22;6863;48.402;9.994;2023-08-08T09:36:57;23.40;72.90
13585;DHT22;6863;48.402;9.994;2023-08-08T09:39:23;24.50;68.90
13585;DHT22;6863;48.402;9.994;2023-08-08T09:41:49;25.40;65.50
13585;DHT22;6863;48.402;9.994;2023-08-08T09:44:15;26.60;60.40
13585;DHT22;6863;48.402;9.994;2023-08-08T09:46:41;26.30;59.00
13585;DHT22;6863;48.402;9.994;2023-08-08T09:49:06;25.70;59.10
13585;DHT22;6863;48.402;9.994;2023-08-08T09:51:34;25.30;60.40
13585;DHT22;6863;48.402;9.994;2023-08-08T09:54:00;24.80;62.30
13585;DHT22;6863;48.402;9.994;2023-08-08T09:56:26;23.60;63.70
13585;DHT22;6863;48.402;9.994;2023-08-08T09:58:53;23.30;66.20
13585;DHT22;6863;48.402;9.994;2023-08-08T10:01:20;23.40;65.50
13585;DHT22;6863;48.402;9.994;2023-08-08T10:03:46;23.40;64.20
13585;DHT22;6863;48.402;9.994;2023-08-08T10:06:13;23.40;59.80
13585;DHT22;6863;48.402;9.994;2023-08-08T10:08:39;22.20;62.40
13585;DHT22;6863;48.402;9.994;2023-08-08T10:11:06;22.30;63.60
13585;DHT22;6863;48.402;9.994;2023-08-08T10:13:35;22.10;63.80
13585;DHT22;6863;48.402;9.994;2023-08-08T10:16:07;23.90;61.40
13585;DHT22;6863;48.402;9.994;2023-08-08T10:18:34;25.40;56.00
13585;DHT22;6863;48.402;9.994;2023-08-08T10:20:59;25.20;51.90
13585;DHT22;6863;48.402;9.994;2023-08-08T10:23:25;25.30;52.40
13585;DHT22;6863;48.402;9.994;2023-08-08T10:25:52;25.80;53.30
13585;DHT22;6863;48.402;9.994;2023-08-08T10:28:21;26.90;50.90
13585;DHT22;6863;48.402;9.994;2023-08-08T10:30:55;27.40;49.30
13585;DHT22;6863;48.402;9.994;2023-08-08T10:34:00;27.20;49.00
13585;DHT22;6863;48.402;9.994;2023-08-08T10:36:12;26.00;49.50
13585;DHT22;6863;48.402;9.994;2023-08-08T10:38:44;28.50;47.10
13585;DHT22;6863;48.402;9.994;2023-08-08T10:41:11;30.20;43.60
13585;DHT22;6863;48.402;9.994;2023-08-08T10:43:37;30.80;40.50
13585;DHT22;6863;48.402;9.994;2023-08-08T10:46:04;28.30;43.10
13585;DHT22;6863;48.402;9.994;2023-08-08T10:48:30;26.80;46.40
13585;DHT22;6863;48.402;9.994;2023-08-08T10:50:58;26.00;48.20
13585;DHT22;6863;48.402;9.994;2023-08-08T10:53:28;27.10;47.30
13585;DHT22;6863;48.402;9.994;2023-08-08T10:55:59;28.40;44.40
13585;DHT22;6863;48.402;9.994;2023-08-08T10:58:38;29.00;43.40
13585;DHT22;6863;48.402;9.994;2023-08-08T11:01:04;29.10;42.70
13585;DHT22;6863;48.402;9.994;2023-08-08T11:03:36;26.50;45.10
13585;DHT22;6863;48.402;9.994;2023-08-08T11:06:04;24.80;49.00
13585;DHT22;6863;48.402;9.994;2023-08-08T11:08:31;24.40;50.90
13585;DHT22;6863;48.402;9.994;2023-08-08T11:10:57;25.70;50.00
13585;DHT22;6863;48.402;9.994;2023-08-08T11:13:23;26.90;46.50
13585;DHT22;6863;48.402;9.994;2023-08-08T11:15:48;27.40;45.50
13585;DHT22;6863;48.402;9.994;2023-08-08T11:18:14;28.20;43.40
13585;DHT22;6863;48.402;9.994;2023-08-08T11:20:40;29.10;41.50
13585;DHT22;6863;48.402;9.994;2023-08-08T11:23:05;29.90;39.90
13585;DHT22;6863;48.402;9.994;2023-08-08T11:25:36;29.60;39.20
13585;DHT22;6863;48.402;9.994;2023-08-08T11:28:02;28.10;41.90
13585;DHT22;6863;48.402;9.994;2023-08-08T11:30:30;27.10;43.90
13585;DHT22;6863;48.402;9.994;2023-08-08T11:32:57;26.60;45.80
13585;DHT22;6863;48.402;9.994;2023-08-08T11:35:24;28.00;44.30
13585;DHT22;6863;48.402;9.994;2023-08-08T11:37:52;29.00;41.10
13585;DHT22;6863;48.402;9.994;2023-08-08T11:40:18;27.90;41.10
13585;DHT22;6863;48.402;9.994;2023-08-08T11:42:45;28.50;41.10
13585;DHT22;6863;48.402;9.994;2023-08-08T11:45:12;28.90;40.40
13585;DHT22;6863;48.402;9.994;2023-08-08T11:47:41;30.50;37.50
13585;DHT22;6863;48.402;9.994;2023-08-08T11:50:08;30.40;36.00
13585;DHT22;6863;48.402;9.994;2023-08-08T11:52:40;28.70;37.40
13585;DHT22;6863;48.402;9.994;2023-08-08T11:55:07;26.90;42.10
13585;DHT22;6863;48.402;9.994;2023-08-08T11:57:37;26.90;43.20
13585;DHT22;6863;48.402;9.994;2023-08-08T12:00:09;29.30;40.70
13585;DHT22;6863;48.402;9.994;2023-08-08T12:02:35;28.00;40.40
13585;DHT22;6863;48.402;9.994;2023-08-08T12:05:05;26.60;42.80
13585;DHT22;6863;48.402;9.994;2023-08-08T12:07:33;25.50;44.50
13585;DHT22;6863;48.402;9.994;2023-08-08T12:09:59;25.30;45.00
13585;DHT22;6863;48.402;9.994;2023-08-08T12:12:26;26.10;43.60
13585;DHT22;6863;48.402;9.994;2023-08-08T12:14:54;26.60;43.20
13585;DHT22;6863;48.402;9.994;2023-08-08T12:17:21;27.20;42.60
13585;DHT22;6863;48.402;9.994;2023-08-08T12:19:47;27.60;42.50
13585;DHT22;6863;48.402;9.994;2023-08-08T12:22:14;28.10;41.30
13585;DHT22;6863;48.402;9.994;2023-08-08T12:24:39;27.00;41.40
13585;DHT22;6863;48.402;9.994;2023-08-08T12:27:05;25.70;44.20
13585;DHT22;6863;48.402;9.994;2023-08-08T12:29:31;26.10;44.70
13585;DHT22;6863;48.402;9.994;2023-08-08T12:31:56;28.00;41.80
13585;DHT22;6863;48.402;9.994;2023-08-08T12:34:22;31.10;37.00
13585;DHT22;6863;48.402;9.994;2023-08-08T12:36:47;31.00;35.00
13585;DHT22;6863;48.402;9.994;2023-08-08T12:39:13;31.40;33.70
13585;DHT22;6863;48.402;9.994;2023-08-08T12:41:39;32.50;31.30
13585;DHT22;6863;48.402;9.994;2023-08-08T12:44:05;32.60;31.10
13585;DHT22;6863;48.402;9.994;2023-08-08T12:46:31;32.60;31.50
13585;DHT22;6863;48.402;9.994;2023-08-08T12:48:56;33.40;30.70
13585;DHT22;6863;48.402;9.994;2023-08-08T12:51:22;32.60;30.00
13585;DHT22;6863;48.402;9.994;2023-08-08T12:53:48;31.00;32.00
13585;DHT22;6863;48.402;9.994;2023-08-08T12:56:14;30.40;33.50
13585;DHT22;6863;48.402;9.994;2023-08-08T12:58:39;30.90;32.90
13585;DHT22;6863;48.402;9.994;2023-08-08T13:01:06;29.80;33.20
13585;DHT22;6863;48.402;9.994;2023-08-08T13:03:33;28.30;34.90
13585;DHT22;6863;48.402;9.994;2023-08-08T13:05:59;29.30;34.90
13585;DHT22;6863;48.402;9.994;2023-08-08T13:08:25;31.10;32.50
13585;DHT22;6863;48.402;9.994;2023-08-08T13:10:51;32.00;30.70
13585;DHT22;6863;48.402;9.994;2023-08-08T13:13:16;31.40;30.50
13585;DHT22;6863;48.402;9.994;2023-08-08T13:15:42;30.30;31.30
13585;DHT22;6863;48.402;9.994;2023-08-08T13:18:07;30.50;32.50
13585;DHT22;6863;48.402;9.994;2023-08-08T13:20:33;30.50;31.80
13585;DHT22;6863;48.402;9.994;2023-08-08T13:22:58;30.00;32.20
13585;DHT22;6863;48.402;9.994;2023-08-08T13:25:24;29.10;33.20
13585;DHT22;6863;48.402;9.994;2023-08-08T13:27:49;28.10;34.70
13585;DHT22;6863;48.402;9.994;2023-08-08T13:30:15;27.60;36.00
13585;DHT22;6863;48.402;9.994;2023-08-08T13:32:42;27.90;35.70
13585;DHT22;6863;48.402;9.994;2023-08-08T13:35:07;29.90;32.80
13585;DHT22;6863;48.402;9.994;2023-08-08T13:37:33;30.60;31.70
13585;DHT22;6863;48.402;9.994;2023-08-08T13:39:58;30.50;31.40
13585;DHT22;6863;48.402;9.994;2023-08-08T13:42:24;30.50;31.50
13585;DHT22;6863;48.402;9.994;2023-08-08T13:44:49;30.80;31.30
13585;DHT22;6863;48.402;9.994;2023-08-08T13:47:15;31.10;30.80
13585;DHT22;6863;48.402;9.994;2023-08-08T13:49:40;31.90;30.40
13585;DHT22;6863;48.402;9.994;2023-08-08T13:52:06;33.40;29.00
13585;DHT22;6863;48.402;9.994;2023-08-08T13:54:32;34.50;28.00
13585;DHT22;6863;48.402;9.994;2023-08-08T13:56:57;35.90;27.00
13585;DHT22;6863;48.402;9.994;2023-08-08T13:59:24;35.60;27.10
13585;DHT22;6863;48.402;9.994;2023-08-08T14:01:49;36.90;26.00
13585;DHT22;6863;48.402;9.994;2023-08-08T14:04:15;36.90;25.30
13585;DHT22;6863;48.402;9.994;2023-08-08T14:06:40;36.00;26.10
13585;DHT22;6863;48.402;9.994;2023-08-08T14:09:06;35.30;26.30
13585;DHT22;6863;48.402;9.994;2023-08-08T14:11:32;35.70;26.50
13585;DHT22;6863;48.402;9.994;2023-08-08T14:13:58;35.80;26.00
13585;DHT22;6863;48.402;9.994;2023-08-08T14:16:23;35.50;25.60
13585;DHT22;6863;48.402;9.994;2023-08-08T14:18:49;34.50;26.10
13585;DHT22;6863;48.402;9.994;2023-08-08T14:21:15;32.80;27.10
13585;DHT22;6863;48.402;9.994;2023-08-08T14:23:41;31.10;29.30
13585;DHT22;6863;48.402;9.994;2023-08-08T14:26:06;30.80;29.80
13585;DHT22;6863;48.402;9.994;2023-08-08T14:28:32;30.00;30.70
13585;DHT22;6863;48.402;9.994;2023-08-08T14:30:57;30.30;30.60
13585;DHT22;6863;48.402;9.994;2023-08-08T14:33:23;29.80;31.10
13585;DHT22;6863;48.402;9.994;2023-08-08T14:35:49;28.50;33.20
13585;DHT22;6863;48.402;9.994;2023-08-08T14:38:15;28.60;33.20
13585;DHT22;6863;48.402;9.994;2023-08-08T14:40:41;28.60;33.10
13585;DHT22;6863;48.402;9.994;2023-08-08T14:43:06;28.20;33.70
13585;DHT22;6863;48.402;9.994;2023-08-08T14:45:36;27.00;35.50
13585;DHT22;6863;48.402;9.994;2023-08-08T14:48:04;27.00;36.70
13585;DHT22;6863;48.402;9.994;2023-08-08T14:50:29;27.20;36.60
13585;DHT22;6863;48.402;9.994;2023-08-08T14:52:55;27.00;36.00
13585;DHT22;6863;48.402;9.994;2023-08-08T14:55:21;26.60;36.00
13585;DHT22;6863;48.402;9.994;2023-08-08T14:57:46;26.70;36.30
13585;DHT22;6863;48.402;9.994;2023-08-08T15:00:12;27.40;35.80
13585;DHT22;6863;48.402;9.994;2023-08-08T15:02:38;28.30;34.50
13585;DHT22;6863;48.402;9.994;2023-08-08T15:05:04;28.70;33.90
13585;DHT22;6863;48.402;9.994;2023-08-08T15:07:29;28.40;34.30
13585;DHT22;6863;48.402;9.994;2023-08-08T15:09:55;28.70;34.00
13585;DHT22;6863;48.402;9.994;2023-08-08T15:12:21;28.20;33.90
13585;DHT22;6863;48.402;9.994;2023-08-08T15:14:46;27.70;34.80
13585;DHT22;6863;48.402;9.994;2023-08-08T15:17:14;27.10;35.80
13585;DHT22;6863;48.402;9.994;2023-08-08T15:19:39;26.60;36.80
13585;DHT22;6863;48.402;9.994;2023-08-08T15:22:05;25.90;37.50
13585;DHT22;6863;48.402;9.994;2023-08-08T15:24:31;25.20;38.90
13585;DHT22;6863;48.402;9.994;2023-08-08T15:26:58;24.50;40.10
13585;DHT22;6863;48.402;9.994;2023-08-08T15:29:23;23.90;41.40
13585;DHT22;6863;48.402;9.994;2023-08-08T15:31:49;23.60;41.90
13585;DHT22;6863;48.402;9.994;2023-08-08T15:34:14;23.50;42.60
13585;DHT22;6863;48.402;9.994;2023-08-08T15:36:40;23.30;43.00
13585;DHT22;6863;48.402;9.994;2023-08-08T15:39:06;22.90;43.50